createdAt,value
2023-02-01T00:03:38.467Z,15.80
2023-02-01T00:11:14.255Z,12.35
2023-02-01T00:18:51.956Z,12.02
2023-02-01T00:26:32.393Z,16.05
2023-02-01T00:34:09.915Z,14.38
2023-02-01T00:41:44.545Z,12.27
2023-02-01T00:49:19.938Z,12.88
2023-02-01T00:56:53.961Z,13.75
2023-02-01T01:04:29.156Z,10.60
2023-02-01T01:12:03.934Z,19.17
2023-02-01T01:19:39.161Z,10.93
2023-02-01T01:27:13.109Z,19.25
2023-02-01T01:34:48.294Z,12.03
2023-02-01T01:42:22.259Z,11.20
2023-02-01T01:49:57.546Z,11.23
2023-02-01T01:57:36.111Z,11.18
2023-02-01T02:05:12.780Z,16.83
2023-02-01T02:12:49.988Z,15.20
2023-02-01T02:20:56.168Z,9.95
2023-02-01T02:28:55.482Z,17.48
2023-02-01T02:36:42.007Z,15.35
2023-02-01T02:44:40.816Z,17.27
2023-02-01T02:52:38.755Z,24.77
2023-02-01T03:00:34.158Z,18.38
2023-02-01T03:08:14.428Z,16.50
2023-02-01T03:15:53.806Z,10.27
2023-02-01T03:23:33.138Z,16.13
2023-02-01T03:31:07.717Z,15.85
2023-02-01T03:46:29.026Z,13.95
2023-02-01T03:54:07.328Z,17.80
2023-02-01T04:01:41.669Z,13.25
2023-02-01T04:09:17.566Z,14.85
2023-02-01T04:16:51.445Z,13.68
2023-02-01T04:24:27.016Z,7.37
2023-02-01T04:32:01.379Z,21.55
2023-02-01T04:39:36.751Z,16.02
2023-02-01T04:47:11.446Z,15.45
2023-02-01T05:02:20.241Z,13.40
2023-02-01T05:09:55.364Z,17.97
2023-02-01T05:17:29.392Z,12.43
2023-02-01T05:25:06.791Z,10.60
2023-02-01T05:32:42.082Z,16.23
2023-02-01T05:40:17.508Z,12.63
2023-02-01T05:47:51.349Z,14.63
2023-02-01T05:55:26.594Z,13.27
2023-02-01T06:03:00.681Z,14.10
2023-02-01T06:10:35.888Z,13.33
2023-02-01T06:18:09.808Z,13.23
2023-02-01T06:25:46.352Z,12.10
2023-02-01T06:33:20.843Z,6.43
2023-02-01T06:40:57.526Z,12.30
2023-02-01T06:48:31.464Z,20.70
2023-02-01T06:56:07.246Z,16.93
2023-02-01T07:03:41.099Z,17.92
2023-02-01T07:11:17.687Z,10.53
2023-02-01T07:18:53.315Z,16.48
2023-02-01T07:26:28.569Z,10.95
2023-02-01T07:34:03.888Z,11.48
2023-02-01T07:41:39.390Z,14.82
2023-02-01T07:49:15.219Z,13.43
2023-02-01T07:56:50.652Z,10.38
2023-02-01T08:04:24.483Z,9.48
2023-02-01T08:11:59.935Z,8.80
2023-02-01T08:19:33.731Z,14.57
2023-02-01T08:27:09.237Z,13.93
2023-02-01T08:34:43.472Z,10.82
2023-02-01T08:42:46.858Z,8.15
2023-02-01T08:50:22.549Z,7.72
2023-02-01T08:57:58.028Z,6.90
2023-02-01T09:05:47.524Z,2.20
2023-02-01T09:13:23.907Z,3.88
2023-02-01T09:20:57.673Z,3.50
2023-02-01T09:28:33.355Z,5.57
2023-02-01T09:36:08.236Z,5.63
2023-02-01T09:43:50.918Z,5.93
2023-02-01T09:51:29.974Z,4.20
2023-02-01T09:59:16.526Z,4.82
2023-02-01T10:07:03.486Z,2.70
2023-02-01T10:14:58.094Z,5.53
2023-02-01T10:23:04.934Z,4.23
2023-02-01T10:30:44.374Z,3.25
2023-02-01T10:38:26.515Z,4.28
2023-02-01T10:46:01.835Z,3.83
2023-02-01T10:53:40.948Z,4.43
2023-02-01T11:01:22.740Z,4.90
2023-02-01T11:08:59.065Z,5.25
2023-02-01T11:16:37.028Z,6.80
2023-02-01T11:24:21.328Z,4.50
2023-02-01T11:31:57.597Z,6.37
2023-02-01T11:39:33.407Z,9.57
2023-02-01T11:47:27.035Z,9.23
2023-02-01T11:55:23.660Z,6.65
2023-02-01T12:03:21.613Z,8.35
2023-02-01T12:11:23.684Z,13.25
2023-02-01T12:19:20.338Z,11.80
2023-02-01T12:27:05.023Z,9.23
2023-02-01T12:35:07.260Z,8.75
2023-02-01T12:42:45.599Z,13.93
2023-02-01T12:50:26.866Z,9.25
2023-02-01T12:58:15.056Z,6.32
2023-02-01T13:05:56.231Z,4.07
2023-02-01T13:13:34.654Z,5.47
2023-02-01T13:21:16.287Z,8.30
2023-02-01T13:28:53.531Z,4.55
2023-02-01T13:36:49.677Z,11.43
2023-02-01T13:44:30.155Z,10.57
2023-02-01T13:52:06.792Z,8.32
2023-02-01T14:00:12.232Z,9.55
2023-02-01T14:08:16.025Z,14.63
2023-02-01T14:16:14.735Z,8.35
2023-02-01T14:23:57.331Z,7.70
2023-02-01T14:32:07.264Z,7.80
2023-02-01T14:39:56.106Z,10.85
2023-02-01T14:47:33.709Z,11.52
2023-02-01T14:55:15.347Z,4.85
2023-02-01T15:02:51.713Z,3.92
2023-02-01T15:10:27.324Z,2.28
2023-02-01T15:18:02.149Z,6.45
2023-02-01T15:25:39.959Z,7.47
2023-02-01T15:33:19.322Z,5.13
2023-02-01T15:40:59.872Z,5.18
2023-02-01T15:48:39.348Z,2.95
2023-02-01T15:56:15.956Z,5.60
2023-02-01T16:03:51.557Z,6.30
2023-02-01T16:11:31.445Z,2.45
2023-02-01T16:19:05.625Z,1.45
2023-02-01T16:26:41.118Z,2.47
2023-02-01T16:34:18.092Z,1.33
2023-02-01T16:41:53.391Z,1.08
2023-02-01T16:49:28.619Z,0.45
2023-02-01T16:57:03.872Z,1.88
2023-02-01T17:04:37.894Z,1.17
2023-02-01T17:12:22.790Z,2.05
2023-02-01T17:27:31.905Z,5.65
2023-02-01T17:35:06.232Z,3.38
2023-02-01T17:42:41.434Z,3.35
2023-02-01T17:50:15.963Z,4.32
2023-02-01T17:57:51.563Z,2.60
2023-02-01T18:05:30.222Z,3.70
2023-02-01T18:13:05.459Z,2.92
2023-02-01T18:20:43.503Z,10.50
2023-02-01T18:28:20.206Z,5.35
2023-02-01T18:43:51.344Z,5.93
2023-02-01T18:51:25.391Z,5.55
2023-02-01T18:59:01.145Z,5.30
2023-02-01T19:06:35.975Z,6.80
2023-02-01T19:14:11.248Z,8.10
2023-02-01T19:21:45.789Z,3.90
2023-02-01T19:36:55.214Z,7.18
2023-02-01T19:52:04.832Z,4.93
2023-02-01T19:59:40.144Z,5.18
2023-02-01T20:07:13.232Z,5.45
2023-02-01T20:14:48.485Z,10.17
2023-02-01T20:22:22.884Z,10.77
2023-02-01T20:29:59.537Z,6.68
2023-02-01T20:37:37.648Z,8.55
2023-02-01T20:45:12.997Z,3.00
2023-02-01T20:52:46.856Z,10.43
2023-02-01T21:00:23.776Z,9.30
2023-02-01T21:07:57.607Z,7.15
2023-02-01T21:15:34.714Z,2.77
2023-02-01T21:23:08.991Z,6.18
2023-02-01T21:30:44.296Z,10.15
2023-02-01T21:38:18.091Z,12.05
2023-02-01T21:45:53.736Z,7.70
2023-02-01T21:53:27.599Z,10.68
2023-02-01T22:01:02.873Z,8.67
2023-02-01T22:08:38.256Z,8.27
2023-02-01T22:16:18.153Z,5.57
2023-02-01T22:23:54.249Z,8.43
2023-02-01T22:31:29.623Z,6.93
2023-02-01T22:39:03.812Z,6.20
2023-02-01T22:46:38.999Z,7.95
2023-02-01T22:54:18.823Z,18.17
2023-02-01T23:01:53.952Z,7.32
2023-02-01T23:09:27.929Z,8.68
2023-02-01T23:17:03.102Z,12.90
2023-02-01T23:24:37.253Z,13.43
2023-02-01T23:32:12.456Z,17.27
2023-02-01T23:39:46.218Z,11.73
2023-02-01T23:47:21.413Z,21.70
2023-02-01T23:54:55.182Z,7.55
